Aplicació Alertes

Dades de l'estació automàtica la Pobla de Segur

?
?
Resum diari 22:30 TU
Dades diàries de l'estació meteorològica
Temperatura mitjana -0.1 °C
Temperatura màxima 9.3 °C 14:05 TU
Temperatura mínima -5.4 °C 7:45 TU
Humitat relativa mitjana 70%
Precipitació acumulada 0.0 mm
Ratxa màxima del vent (10 m) 16.6 km/h - 172º 11:28 TU
Pressió atmosfèrica mitjana 1029.6 hPa
Irradiació solar global 8.7 MJ/m2

El tram horari està expressat en Temps Universal (TU). Cal sumar una hora en horari d'hivern i dues en horari d'estiu per passar a l'hora oficial.

la Pobla de Segur

Metadades estació meteorol´gica
Municipi La Pobla de Segur
Comarca Pallars Jussà
Altitud 508 m
Data alta 18.11.2016
Estat actual Operativa
Dades de període
Període
TU
TM
°C
TX
°C
TN
°C
HRM
%
PPT
mm
VVM (10 m)
km/h
DVM (10 m)
graus
VVX (10 m)
km/h
PM
hPa
RS
W/m2
00:00 - 00:30 -0.9 -0.4 -1.6 69 0.0 4.0 297 10.4 1026.9 0
00:30 - 01:00 -1.9 -1.6 -2.2 74 0.0 4.0 41 9.0 1027.3 0
01:00 - 01:30 -2.3 -2.0 -2.6 77 0.0 5.8 24 11.9 1027.2 0
01:30 - 02:00 -2.8 -2.1 -3.1 80 0.0 3.2 122 12.6 1027.6 0
02:00 - 02:30 -2.8 -2.3 -3.1 80 0.0 4.0 36 11.2 1027.8 0
02:30 - 03:00 -3.4 -3.0 -3.6 83 0.0 3.6 38 9.4 1028.1 0
03:00 - 03:30 -3.3 -3.1 -3.6 82 0.0 6.5 28 11.2 1028.3 0
03:30 - 04:00 -3.4 -3.2 -3.7 83 0.0 9.0 35 12.2 1028.3 0
04:00 - 04:30 -3.9 -3.4 -4.2 84 0.0 4.0 33 12.2 1028.7 0
04:30 - 05:00 -4.0 -3.5 -4.4 85 0.0 6.5 38 13.7 1028.9 0
05:00 - 05:30 -4.3 -3.9 -4.8 86 0.0 1.8 209 5.0 1029.2 0
05:30 - 06:00 -4.9 -4.7 -5.0 90 0.0 2.5 63 6.1 1029.5 0
06:00 - 06:30 -5.0 -4.7 -5.2 90 0.0 3.6 17 7.2 1029.8 0
06:30 - 07:00 -4.8 -4.5 -5.1 88 0.0 4.3 16 9.0 1030.0 0
07:00 - 07:30 -5.0 -4.5 -5.3 88 0.0 2.9 297 5.4 1030.3 2
07:30 - 08:00 -5.2 -5.0 -5.4 90 0.0 2.5 69 6.1 1030.8 14
08:00 - 08:30 -4.9 -4.2 -5.3 89 0.0 3.2 31 5.8 1031.1 111
08:30 - 09:00 -3.6 -3.4 -4.1 82 0.0 3.2 42 8.3 1031.2 217
09:00 - 09:30 -2.1 0.1 -3.4 75 0.0 2.5 46 6.1 1031.2 302
09:30 - 10:00 0.2 1.9 -0.6 61 0.0 1.8 64 4.3 1031.0 351
10:00 - 10:30 1.7 2.1 1.4 57 0.0 3.2 156 7.6 1030.8 378
10:30 - 11:00 2.9 3.5 2.1 55 0.0 3.2 166 10.8 1030.3 403
11:00 - 11:30 3.0 3.5 2.5 53 0.0 8.3 169 16.6 1030.0 440
11:30 - 12:00 4.2 5.4 3.4 45 0.0 6.5 178 14.4 1029.4 469
12:00 - 12:30 6.1 6.9 5.4 40 0.0 3.2 231 7.9 1028.6 502
12:30 - 13:00 6.8 7.1 6.5 37 0.0 3.6 26 8.3 1028.1 342
13:00 - 13:30 6.8 7.5 6.1 43 0.0 6.8 163 13.3 1027.7 369
13:30 - 14:00 8.2 9.2 7.4 36 0.0 2.2 183 6.8 1027.2 360
14:00 - 14:30 8.7 9.3 8.3 37 0.0 2.9 180 6.8 1027.1 276
14:30 - 15:00 8.1 8.3 7.8 38 0.0 4.0 184 8.3 1027.2 218
15:00 - 15:30 6.8 7.8 5.2 45 0.0 4.3 295 9.7 1027.6 123
15:30 - 16:00 3.8 5.1 3.0 56 0.0 6.1 311 9.7 1028.5 25
16:00 - 16:30 3.1 3.8 2.5 57 0.0 6.8 330 11.5 1028.9 7
16:30 - 17:00 3.1 3.8 1.7 56 0.0 6.5 347 12.2 1029.1 0
17:00 - 17:30 1.6 1.9 1.2 63 0.0 5.0 359 12.2 1029.7 0
17:30 - 18:00 1.1 1.8 0.6 65 0.0 5.8 11 11.2 1029.9 0
18:00 - 18:30 0.0 1.4 -0.7 71 0.0 6.1 9 13.0 1030.5 0
18:30 - 19:00 -0.8 0.0 -1.1 75 0.0 3.6 24 9.0 1031.1 0
19:00 - 19:30 -1.3 -0.9 -1.6 78 0.0 2.9 24 10.1 1031.7 0
19:30 - 20:00 -1.6 -1.5 -1.7 81 0.0 5.0 41 11.5 1032.2 0
20:00 - 20:30 -1.5 -1.0 -1.8 80 0.0 4.7 18 12.6 1032.2 0
20:30 - 21:00 -1.3 -1.2 -1.5 80 0.0 3.6 27 11.2 1032.2 0
21:00 - 21:30 -0.9 -0.7 -1.2 79 0.0 4.0 26 12.6 1032.1 0
21:30 - 22:00 -0.9 -0.6 -1.1 80 0.0 4.0 27 9.0 1032.3 0
22:00 - 22:30 -1.3 -0.9 -1.7 83 0.0 2.5 155 6.5 1032.6 0
22:30 - 23:00 -1.5 -1.4 -1.6 84 0.0 2.2 40 7.2 1032.7 0

Les dades en taronja només han passat un control de qualitat automàtic. Resta pendent la seva validació definitiva.